sensor_id;sensor_type;location;lat;lon;timestamp;P1;durP1;ratioP1;P2;durP2;ratioP2
5819;SDS011;2936;47.348;9.640;2022-08-04T00:00:09;5.03;;;4.53;;
5819;SDS011;2936;47.348;9.640;2022-08-04T00:02:41;5.03;;;4.63;;
5819;SDS011;2936;47.348;9.640;2022-08-04T00:05:11;5.70;;;4.60;;
5819;SDS011;2936;47.348;9.640;2022-08-04T00:07:39;5.40;;;5.00;;
5819;SDS011;2936;47.348;9.640;2022-08-04T00:10:07;5.70;;;4.70;;
5819;SDS011;2936;47.348;9.640;2022-08-04T00:12:37;4.83;;;4.53;;
5819;SDS011;2936;47.348;9.640;2022-08-04T00:15:09;4.47;;;4.07;;
5819;SDS011;2936;47.348;9.640;2022-08-04T00:17:38;5.57;;;5.10;;
5819;SDS011;2936;47.348;9.640;2022-08-04T00:20:06;8.57;;;4.93;;
5819;SDS011;2936;47.348;9.640;2022-08-04T00:22:35;10.80;;;5.20;;
5819;SDS011;2936;47.348;9.640;2022-08-04T00:25:04;5.00;;;4.70;;
5819;SDS011;2936;47.348;9.640;2022-08-04T00:27:32;5.13;;;4.83;;
5819;SDS011;2936;47.348;9.640;2022-08-04T00:30:01;5.93;;;5.40;;
5819;SDS011;2936;47.348;9.640;2022-08-04T00:32:29;4.90;;;4.60;;
5819;SDS011;2936;47.348;9.640;2022-08-04T00:34:57;4.80;;;4.57;;
5819;SDS011;2936;47.348;9.640;2022-08-04T00:37:25;7.57;;;5.40;;
5819;SDS011;2936;47.348;9.640;2022-08-04T00:39:53;4.60;;;4.30;;
5819;SDS011;2936;47.348;9.640;2022-08-04T00:42:33;5.40;;;4.90;;
5819;SDS011;2936;47.348;9.640;2022-08-04T00:45:11;6.63;;;5.63;;
5819;SDS011;2936;47.348;9.640;2022-08-04T00:47:49;5.03;;;4.53;;
5819;SDS011;2936;47.348;9.640;2022-08-04T00:50:22;5.60;;;5.20;;
5819;SDS011;2936;47.348;9.640;2022-08-04T00:52:53;5.67;;;5.17;;
5819;SDS011;2936;47.348;9.640;2022-08-04T00:55:27;6.53;;;5.67;;
5819;SDS011;2936;47.348;9.640;2022-08-04T00:58:02;5.10;;;4.70;;
5819;SDS011;2936;47.348;9.640;2022-08-04T01:00:36;4.97;;;4.57;;
5819;SDS011;2936;47.348;9.640;2022-08-04T01:03:08;5.93;;;4.97;;
5819;SDS011;2936;47.348;9.640;2022-08-04T01:05:44;8.80;;;5.33;;
5819;SDS011;2936;47.348;9.640;2022-08-04T01:08:18;5.90;;;5.50;;
5819;SDS011;2936;47.348;9.640;2022-08-04T01:10:54;5.10;;;4.70;;
5819;SDS011;2936;47.348;9.640;2022-08-04T01:16:09;8.57;;;5.17;;
5819;SDS011;2936;47.348;9.640;2022-08-04T01:18:40;5.70;;;5.20;;
5819;SDS011;2936;47.348;9.640;2022-08-04T01:21:19;5.27;;;4.87;;
5819;SDS011;2936;47.348;9.640;2022-08-04T01:26:42;5.20;;;4.73;;
5819;SDS011;2936;47.348;9.640;2022-08-04T01:29:16;8.27;;;5.63;;
5819;SDS011;2936;47.348;9.640;2022-08-04T01:31:54;5.27;;;4.77;;
5819;SDS011;2936;47.348;9.640;2022-08-04T01:34:24;9.70;;;5.50;;
5819;SDS011;2936;47.348;9.640;2022-08-04T01:36:56;6.10;;;5.50;;
5819;SDS011;2936;47.348;9.640;2022-08-04T01:39:27;5.63;;;5.13;;
5819;SDS011;2936;47.348;9.640;2022-08-04T01:42:06;5.53;;;5.13;;
5819;SDS011;2936;47.348;9.640;2022-08-04T01:44:36;10.80;;;5.53;;
5819;SDS011;2936;47.348;9.640;2022-08-04T01:47:03;11.77;;;5.43;;
5819;SDS011;2936;47.348;9.640;2022-08-04T01:49:31;5.57;;;5.17;;
5819;SDS011;2936;47.348;9.640;2022-08-04T01:51:58;6.43;;;5.93;;
5819;SDS011;2936;47.348;9.640;2022-08-04T01:54:26;6.33;;;5.70;;
5819;SDS011;2936;47.348;9.640;2022-08-04T01:56:54;6.07;;;5.57;;
5819;SDS011;2936;47.348;9.640;2022-08-04T01:59:22;5.70;;;5.23;;
5819;SDS011;2936;47.348;9.640;2022-08-04T02:01:52;6.30;;;5.20;;
5819;SDS011;2936;47.348;9.640;2022-08-04T02:04:19;9.80;;;5.10;;
5819;SDS011;2936;47.348;9.640;2022-08-04T02:06:53;5.73;;;5.33;;
5819;SDS011;2936;47.348;9.640;2022-08-04T02:09:23;6.33;;;5.10;;
5819;SDS011;2936;47.348;9.640;2022-08-04T02:12:01;5.37;;;4.97;;
5819;SDS011;2936;47.348;9.640;2022-08-04T02:14:30;4.93;;;4.43;;
5819;SDS011;2936;47.348;9.640;2022-08-04T02:17:12;5.03;;;4.73;;
5819;SDS011;2936;47.348;9.640;2022-08-04T02:19:53;5.70;;;4.93;;
5819;SDS011;2936;47.348;9.640;2022-08-04T02:22:26;6.20;;;5.70;;
5819;SDS011;2936;47.348;9.640;2022-08-04T02:24:56;6.40;;;5.43;;
5819;SDS011;2936;47.348;9.640;2022-08-04T02:27:27;6.57;;;4.77;;
5819;SDS011;2936;47.348;9.640;2022-08-04T02:29:55;5.10;;;4.73;;
5819;SDS011;2936;47.348;9.640;2022-08-04T02:32:26;8.00;;;5.80;;
5819;SDS011;2936;47.348;9.640;2022-08-04T02:34:56;5.23;;;4.83;;
5819;SDS011;2936;47.348;9.640;2022-08-04T02:37:26;5.70;;;5.30;;
5819;SDS011;2936;47.348;9.640;2022-08-04T02:39:57;6.10;;;5.53;;
5819;SDS011;2936;47.348;9.640;2022-08-04T02:42:25;6.10;;;5.50;;
5819;SDS011;2936;47.348;9.640;2022-08-04T02:44:55;5.70;;;4.87;;
5819;SDS011;2936;47.348;9.640;2022-08-04T02:47:23;7.17;;;5.50;;
5819;SDS011;2936;47.348;9.640;2022-08-04T02:49:52;5.67;;;5.17;;
5819;SDS011;2936;47.348;9.640;2022-08-04T02:52:20;4.80;;;4.50;;
5819;SDS011;2936;47.348;9.640;2022-08-04T02:54:50;4.37;;;4.17;;
5819;SDS011;2936;47.348;9.640;2022-08-04T02:57:17;5.03;;;4.17;;
5819;SDS011;2936;47.348;9.640;2022-08-04T02:59:50;4.30;;;4.00;;
5819;SDS011;2936;47.348;9.640;2022-08-04T03:02:19;4.80;;;4.50;;
5819;SDS011;2936;47.348;9.640;2022-08-04T03:04:55;4.57;;;4.17;;
5819;SDS011;2936;47.348;9.640;2022-08-04T03:13:16;6.23;;;5.70;;
5819;SDS011;2936;47.348;9.640;2022-08-04T03:18:55;5.17;;;4.33;;
5819;SDS011;2936;47.348;9.640;2022-08-04T03:27:08;5.50;;;5.00;;
5819;SDS011;2936;47.348;9.640;2022-08-04T03:29:47;5.20;;;4.80;;
5819;SDS011;2936;47.348;9.640;2022-08-04T03:32:29;6.20;;;4.97;;
5819;SDS011;2936;47.348;9.640;2022-08-04T03:35:08;7.90;;;6.23;;
5819;SDS011;2936;47.348;9.640;2022-08-04T03:40:39;5.20;;;4.80;;
5819;SDS011;2936;47.348;9.640;2022-08-04T03:46:10;5.33;;;4.93;;
5819;SDS011;2936;47.348;9.640;2022-08-04T03:48:49;5.70;;;5.30;;
5819;SDS011;2936;47.348;9.640;2022-08-04T03:51:26;5.90;;;5.40;;
5819;SDS011;2936;47.348;9.640;2022-08-04T04:00:04;4.50;;;4.30;;
5819;SDS011;2936;47.348;9.640;2022-08-04T04:05:28;4.53;;;4.23;;
5819;SDS011;2936;47.348;9.640;2022-08-04T04:08:06;5.80;;;5.20;;
5819;SDS011;2936;47.348;9.640;2022-08-04T04:10:51;6.50;;;5.23;;
5819;SDS011;2936;47.348;9.640;2022-08-04T04:13:29;5.80;;;5.10;;
5819;SDS011;2936;47.348;9.640;2022-08-04T04:16:06;5.17;;;4.70;;
5819;SDS011;2936;47.348;9.640;2022-08-04T04:18:43;4.90;;;4.60;;
5819;SDS011;2936;47.348;9.640;2022-08-04T04:21:23;8.23;;;5.50;;
5819;SDS011;2936;47.348;9.640;2022-08-04T04:23:56;4.87;;;4.33;;
5819;SDS011;2936;47.348;9.640;2022-08-04T04:26:36;4.53;;;4.30;;
5819;SDS011;2936;47.348;9.640;2022-08-04T04:29:11;4.73;;;4.43;;
5819;SDS011;2936;47.348;9.640;2022-08-04T04:31:53;7.70;;;4.67;;
5819;SDS011;2936;47.348;9.640;2022-08-04T04:34:30;4.80;;;4.37;;
5819;SDS011;2936;47.348;9.640;2022-08-04T04:37:08;4.43;;;4.17;;
5819;SDS011;2936;47.348;9.640;2022-08-04T04:39:42;4.30;;;4.00;;
5819;SDS011;2936;47.348;9.640;2022-08-04T04:42:20;4.57;;;4.27;;
5819;SDS011;2936;47.348;9.640;2022-08-04T04:45:05;4.63;;;4.33;;
5819;SDS011;2936;47.348;9.640;2022-08-04T04:47:41;4.70;;;4.23;;
5819;SDS011;2936;47.348;9.640;2022-08-04T04:50:12;5.00;;;4.70;;
5819;SDS011;2936;47.348;9.640;2022-08-04T04:52:44;4.60;;;4.30;;
5819;SDS011;2936;47.348;9.640;2022-08-04T04:55:14;3.90;;;3.70;;
5819;SDS011;2936;47.348;9.640;2022-08-04T04:57:44;4.30;;;4.00;;
5819;SDS011;2936;47.348;9.640;2022-08-04T05:00:12;4.83;;;4.50;;
5819;SDS011;2936;47.348;9.640;2022-08-04T05:02:49;4.77;;;4.43;;
5819;SDS011;2936;47.348;9.640;2022-08-04T05:05:25;5.03;;;4.63;;
5819;SDS011;2936;47.348;9.640;2022-08-04T05:08:05;4.70;;;4.30;;
5819;SDS011;2936;47.348;9.640;2022-08-04T05:10:39;8.03;;;4.60;;
5819;SDS011;2936;47.348;9.640;2022-08-04T05:13:19;8.43;;;4.87;;
5819;SDS011;2936;47.348;9.640;2022-08-04T05:15:59;5.47;;;3.83;;
5819;SDS011;2936;47.348;9.640;2022-08-04T05:18:29;6.50;;;4.90;;
5819;SDS011;2936;47.348;9.640;2022-08-04T05:20:58;5.37;;;4.83;;
5819;SDS011;2936;47.348;9.640;2022-08-04T05:23:31;5.20;;;4.00;;
5819;SDS011;2936;47.348;9.640;2022-08-04T05:26:02;8.70;;;5.07;;
5819;SDS011;2936;47.348;9.640;2022-08-04T05:28:33;10.07;;;4.83;;
5819;SDS011;2936;47.348;9.640;2022-08-04T05:31:05;9.10;;;5.60;;
5819;SDS011;2936;47.348;9.640;2022-08-04T05:33:37;8.20;;;4.30;;
5819;SDS011;2936;47.348;9.640;2022-08-04T05:36:09;4.70;;;4.37;;
5819;SDS011;2936;47.348;9.640;2022-08-04T05:38:39;14.67;;;6.07;;
5819;SDS011;2936;47.348;9.640;2022-08-04T05:41:08;7.23;;;4.13;;
5819;SDS011;2936;47.348;9.640;2022-08-04T05:43:35;5.23;;;4.73;;
5819;SDS011;2936;47.348;9.640;2022-08-04T05:46:05;4.40;;;4.10;;
5819;SDS011;2936;47.348;9.640;2022-08-04T05:48:32;8.60;;;4.17;;
5819;SDS011;2936;47.348;9.640;2022-08-04T05:51:00;8.20;;;4.20;;
5819;SDS011;2936;47.348;9.640;2022-08-04T05:53:29;4.73;;;4.17;;
5819;SDS011;2936;47.348;9.640;2022-08-04T05:55:58;4.87;;;3.60;;
5819;SDS011;2936;47.348;9.640;2022-08-04T05:58:28;4.60;;;4.37;;
5819;SDS011;2936;47.348;9.640;2022-08-04T06:00:56;4.50;;;4.20;;
5819;SDS011;2936;47.348;9.640;2022-08-04T06:03:24;4.50;;;4.20;;
5819;SDS011;2936;47.348;9.640;2022-08-04T06:05:53;4.70;;;4.33;;
5819;SDS011;2936;47.348;9.640;2022-08-04T06:08:21;4.50;;;4.20;;
5819;SDS011;2936;47.348;9.640;2022-08-04T06:10:49;6.53;;;4.60;;
5819;SDS011;2936;47.348;9.640;2022-08-04T06:13:19;5.03;;;4.73;;
5819;SDS011;2936;47.348;9.640;2022-08-04T06:15:52;5.57;;;4.10;;
5819;SDS011;2936;47.348;9.640;2022-08-04T06:18:22;5.17;;;4.50;;
5819;SDS011;2936;47.348;9.640;2022-08-04T06:20:50;4.37;;;4.07;;
5819;SDS011;2936;47.348;9.640;2022-08-04T06:23:19;4.40;;;4.10;;
5819;SDS011;2936;47.348;9.640;2022-08-04T06:25:50;5.33;;;4.83;;
5819;SDS011;2936;47.348;9.640;2022-08-04T06:28:20;4.80;;;4.50;;
5819;SDS011;2936;47.348;9.640;2022-08-04T06:30:48;4.23;;;3.93;;
5819;SDS011;2936;47.348;9.640;2022-08-04T06:33:16;4.77;;;4.27;;
5819;SDS011;2936;47.348;9.640;2022-08-04T06:35:52;4.47;;;4.20;;
5819;SDS011;2936;47.348;9.640;2022-08-04T06:38:20;6.27;;;4.37;;
5819;SDS011;2936;47.348;9.640;2022-08-04T06:40:48;5.63;;;5.00;;
5819;SDS011;2936;47.348;9.640;2022-08-04T06:43:15;5.27;;;4.60;;
5819;SDS011;2936;47.348;9.640;2022-08-04T06:45:45;5.07;;;4.20;;
5819;SDS011;2936;47.348;9.640;2022-08-04T06:48:13;4.97;;;4.57;;
5819;SDS011;2936;47.348;9.640;2022-08-04T06:50:42;4.30;;;4.00;;
5819;SDS011;2936;47.348;9.640;2022-08-04T06:53:11;4.40;;;4.10;;
5819;SDS011;2936;47.348;9.640;2022-08-04T06:55:38;8.03;;;4.67;;
5819;SDS011;2936;47.348;9.640;2022-08-04T06:58:06;4.33;;;4.00;;
5819;SDS011;2936;47.348;9.640;2022-08-04T07:00:35;4.53;;;4.30;;
5819;SDS011;2936;47.348;9.640;2022-08-04T07:03:04;4.70;;;4.27;;
5819;SDS011;2936;47.348;9.640;2022-08-04T07:05:32;5.33;;;4.53;;
5819;SDS011;2936;47.348;9.640;2022-08-04T07:08:00;4.50;;;3.77;;
5819;SDS011;2936;47.348;9.640;2022-08-04T07:10:27;5.23;;;4.20;;
5819;SDS011;2936;47.348;9.640;2022-08-04T07:12:55;4.70;;;4.27;;
5819;SDS011;2936;47.348;9.640;2022-08-04T07:15:23;5.03;;;4.50;;
5819;SDS011;2936;47.348;9.640;2022-08-04T07:17:52;5.17;;;4.57;;
5819;SDS011;2936;47.348;9.640;2022-08-04T07:20:22;6.00;;;4.80;;
5819;SDS011;2936;47.348;9.640;2022-08-04T07:22:50;7.67;;;4.83;;
5819;SDS011;2936;47.348;9.640;2022-08-04T07:25:18;7.83;;;4.27;;
5819;SDS011;2936;47.348;9.640;2022-08-04T07:27:46;6.20;;;4.63;;
5819;SDS011;2936;47.348;9.640;2022-08-04T07:30:13;4.80;;;4.50;;
5819;SDS011;2936;47.348;9.640;2022-08-04T07:32:41;4.30;;;4.10;;
5819;SDS011;2936;47.348;9.640;2022-08-04T07:35:11;5.13;;;4.73;;
5819;SDS011;2936;47.348;9.640;2022-08-04T07:37:40;4.20;;;3.90;;
5819;SDS011;2936;47.348;9.640;2022-08-04T07:40:08;6.73;;;4.83;;
5819;SDS011;2936;47.348;9.640;2022-08-04T07:42:35;5.20;;;4.33;;
5819;SDS011;2936;47.348;9.640;2022-08-04T07:45:03;5.77;;;4.93;;
5819;SDS011;2936;47.348;9.640;2022-08-04T07:47:31;4.70;;;4.30;;
5819;SDS011;2936;47.348;9.640;2022-08-04T07:49:58;7.40;;;4.93;;
5819;SDS011;2936;47.348;9.640;2022-08-04T07:52:26;5.63;;;5.13;;
5819;SDS011;2936;47.348;9.640;2022-08-04T07:54:55;6.33;;;4.87;;
5819;SDS011;2936;47.348;9.640;2022-08-04T07:57:22;5.40;;;4.40;;
5819;SDS011;2936;47.348;9.640;2022-08-04T07:59:50;4.03;;;3.77;;
5819;SDS011;2936;47.348;9.640;2022-08-04T08:02:17;5.10;;;4.60;;
5819;SDS011;2936;47.348;9.640;2022-08-04T08:04:46;4.97;;;4.40;;
5819;SDS011;2936;47.348;9.640;2022-08-04T08:07:14;6.50;;;4.53;;
5819;SDS011;2936;47.348;9.640;2022-08-04T08:09:41;3.87;;;3.67;;
5819;SDS011;2936;47.348;9.640;2022-08-04T08:12:10;8.83;;;4.77;;
5819;SDS011;2936;47.348;9.640;2022-08-04T08:14:38;5.67;;;4.20;;
5819;SDS011;2936;47.348;9.640;2022-08-04T08:17:06;5.23;;;4.23;;
5819;SDS011;2936;47.348;9.640;2022-08-04T08:19:33;5.37;;;4.27;;
5819;SDS011;2936;47.348;9.640;2022-08-04T08:22:01;7.73;;;4.33;;
5819;SDS011;2936;47.348;9.640;2022-08-04T08:24:29;4.90;;;4.50;;
5819;SDS011;2936;47.348;9.640;2022-08-04T08:26:57;16.23;;;4.60;;
5819;SDS011;2936;47.348;9.640;2022-08-04T08:29:26;5.27;;;4.40;;
5819;SDS011;2936;47.348;9.640;2022-08-04T08:31:55;4.90;;;4.40;;
5819;SDS011;2936;47.348;9.640;2022-08-04T08:34:22;4.77;;;4.47;;
5819;SDS011;2936;47.348;9.640;2022-08-04T08:36:52;4.97;;;4.17;;
5819;SDS011;2936;47.348;9.640;2022-08-04T08:39:24;9.13;;;5.10;;
5819;SDS011;2936;47.348;9.640;2022-08-04T08:47:34;8.47;;;5.73;;
5819;SDS011;2936;47.348;9.640;2022-08-04T08:50:17;7.27;;;5.13;;
5819;SDS011;2936;47.348;9.640;2022-08-04T08:52:50;9.03;;;4.73;;
5819;SDS011;2936;47.348;9.640;2022-08-04T08:55:25;5.07;;;4.37;;
5819;SDS011;2936;47.348;9.640;2022-08-04T08:58:08;4.70;;;4.40;;
5819;SDS011;2936;47.348;9.640;2022-08-04T09:00:42;9.63;;;5.13;;
5819;SDS011;2936;47.348;9.640;2022-08-04T09:06:16;4.47;;;4.17;;
5819;SDS011;2936;47.348;9.640;2022-08-04T09:08:52;10.33;;;4.60;;
5819;SDS011;2936;47.348;9.640;2022-08-04T09:11:22;4.40;;;4.00;;
5819;SDS011;2936;47.348;9.640;2022-08-04T09:13:51;4.57;;;4.37;;
5819;SDS011;2936;47.348;9.640;2022-08-04T09:16:21;4.60;;;4.20;;
5819;SDS011;2936;47.348;9.640;2022-08-04T09:18:52;7.43;;;4.67;;
5819;SDS011;2936;47.348;9.640;2022-08-04T09:21:24;7.13;;;4.83;;
5819;SDS011;2936;47.348;9.640;2022-08-04T09:23:57;5.50;;;4.80;;
5819;SDS011;2936;47.348;9.640;2022-08-04T09:26:28;7.07;;;5.33;;
5819;SDS011;2936;47.348;9.640;2022-08-04T09:29:00;6.10;;;4.80;;
5819;SDS011;2936;47.348;9.640;2022-08-04T09:31:32;5.10;;;4.70;;
5819;SDS011;2936;47.348;9.640;2022-08-04T09:34:03;6.00;;;5.37;;
5819;SDS011;2936;47.348;9.640;2022-08-04T09:36:38;4.80;;;4.40;;
5819;SDS011;2936;47.348;9.640;2022-08-04T09:39:10;5.20;;;4.70;;
5819;SDS011;2936;47.348;9.640;2022-08-04T09:41:44;8.43;;;4.70;;
5819;SDS011;2936;47.348;9.640;2022-08-04T09:44:16;11.60;;;5.10;;
5819;SDS011;2936;47.348;9.640;2022-08-04T09:46:47;4.67;;;4.47;;
5819;SDS011;2936;47.348;9.640;2022-08-04T09:49:17;5.93;;;4.87;;
5819;SDS011;2936;47.348;9.640;2022-08-04T09:51:55;4.87;;;4.43;;
5819;SDS011;2936;47.348;9.640;2022-08-04T09:54:26;4.80;;;4.17;;
5819;SDS011;2936;47.348;9.640;2022-08-04T09:56:56;5.50;;;5.20;;
5819;SDS011;2936;47.348;9.640;2022-08-04T09:59:28;5.53;;;4.97;;
5819;SDS011;2936;47.348;9.640;2022-08-04T10:02:01;5.00;;;4.50;;
5819;SDS011;2936;47.348;9.640;2022-08-04T10:04:31;8.70;;;4.73;;
5819;SDS011;2936;47.348;9.640;2022-08-04T10:07:14;6.13;;;4.70;;
5819;SDS011;2936;47.348;9.640;2022-08-04T10:12:40;5.40;;;4.90;;
5819;SDS011;2936;47.348;9.640;2022-08-04T10:15:13;5.03;;;4.73;;
5819;SDS011;2936;47.348;9.640;2022-08-04T10:20:38;6.47;;;4.40;;
5819;SDS011;2936;47.348;9.640;2022-08-04T10:23:11;6.40;;;4.80;;
5819;SDS011;2936;47.348;9.640;2022-08-04T10:25:43;4.73;;;4.40;;
5819;SDS011;2936;47.348;9.640;2022-08-04T10:28:12;5.70;;;5.30;;
5819;SDS011;2936;47.348;9.640;2022-08-04T10:30:44;5.63;;;5.20;;
5819;SDS011;2936;47.348;9.640;2022-08-04T10:33:17;13.97;;;5.10;;
5819;SDS011;2936;47.348;9.640;2022-08-04T10:35:47;9.07;;;5.27;;
5819;SDS011;2936;47.348;9.640;2022-08-04T10:38:18;6.90;;;5.20;;
5819;SDS011;2936;47.348;9.640;2022-08-04T10:40:48;4.93;;;4.63;;
5819;SDS011;2936;47.348;9.640;2022-08-04T10:43:19;5.07;;;4.53;;
5819;SDS011;2936;47.348;9.640;2022-08-04T10:45:49;7.83;;;4.80;;
5819;SDS011;2936;47.348;9.640;2022-08-04T10:48:19;5.63;;;5.23;;
5819;SDS011;2936;47.348;9.640;2022-08-04T10:50:52;7.03;;;5.00;;
5819;SDS011;2936;47.348;9.640;2022-08-04T10:53:24;5.70;;;4.40;;
5819;SDS011;2936;47.348;9.640;2022-08-04T10:55:55;12.20;;;5.10;;
5819;SDS011;2936;47.348;9.640;2022-08-04T10:58:24;5.20;;;4.80;;
5819;SDS011;2936;47.348;9.640;2022-08-04T11:00:53;6.50;;;5.90;;
5819;SDS011;2936;47.348;9.640;2022-08-04T11:03:23;5.80;;;5.30;;
5819;SDS011;2936;47.348;9.640;2022-08-04T11:05:52;8.57;;;4.40;;
5819;SDS011;2936;47.348;9.640;2022-08-04T11:08:20;4.73;;;4.40;;
5819;SDS011;2936;47.348;9.640;2022-08-04T11:10:50;6.60;;;4.97;;
5819;SDS011;2936;47.348;9.640;2022-08-04T11:13:17;4.77;;;4.37;;
5819;SDS011;2936;47.348;9.640;2022-08-04T11:15:46;7.30;;;5.00;;
5819;SDS011;2936;47.348;9.640;2022-08-04T11:18:18;5.20;;;4.80;;
5819;SDS011;2936;47.348;9.640;2022-08-04T11:20:49;4.37;;;4.17;;
5819;SDS011;2936;47.348;9.640;2022-08-04T11:23:18;9.43;;;4.93;;
5819;SDS011;2936;47.348;9.640;2022-08-04T11:25:52;4.97;;;4.67;;
5819;SDS011;2936;47.348;9.640;2022-08-04T11:28:25;6.47;;;4.60;;
5819;SDS011;2936;47.348;9.640;2022-08-04T11:30:56;4.77;;;4.30;;
5819;SDS011;2936;47.348;9.640;2022-08-04T11:33:26;9.27;;;4.43;;
5819;SDS011;2936;47.348;9.640;2022-08-04T11:36:01;4.70;;;4.40;;
5819;SDS011;2936;47.348;9.640;2022-08-04T11:38:31;4.97;;;4.60;;
5819;SDS011;2936;47.348;9.640;2022-08-04T11:41:02;5.53;;;4.70;;
5819;SDS011;2936;47.348;9.640;2022-08-04T11:43:59;8.73;;;4.97;;
5819;SDS011;2936;47.348;9.640;2022-08-04T11:46:23;8.20;;;4.17;;
5819;SDS011;2936;47.348;9.640;2022-08-04T11:48:55;8.90;;;4.67;;
5819;SDS011;2936;47.348;9.640;2022-08-04T11:51:24;16.10;;;4.60;;
5819;SDS011;2936;47.348;9.640;2022-08-04T11:53:53;4.30;;;3.90;;
5819;SDS011;2936;47.348;9.640;2022-08-04T11:56:24;6.40;;;4.17;;
5819;SDS011;2936;47.348;9.640;2022-08-04T11:58:53;4.70;;;3.87;;
5819;SDS011;2936;47.348;9.640;2022-08-04T12:01:23;4.10;;;3.37;;
5819;SDS011;2936;47.348;9.640;2022-08-04T12:03:57;3.90;;;3.60;;
5819;SDS011;2936;47.348;9.640;2022-08-04T12:06:28;4.30;;;3.40;;
5819;SDS011;2936;47.348;9.640;2022-08-04T12:09:02;7.30;;;3.63;;
5819;SDS011;2936;47.348;9.640;2022-08-04T12:14:18;15.70;;;3.93;;
5819;SDS011;2936;47.348;9.640;2022-08-04T12:16:51;5.83;;;3.60;;
5819;SDS011;2936;47.348;9.640;2022-08-04T12:19:23;4.50;;;4.20;;
5819;SDS011;2936;47.348;9.640;2022-08-04T12:21:53;3.30;;;3.00;;
5819;SDS011;2936;47.348;9.640;2022-08-04T12:24:25;3.40;;;3.10;;
5819;SDS011;2936;47.348;9.640;2022-08-04T12:26:55;5.17;;;4.20;;
5819;SDS011;2936;47.348;9.640;2022-08-04T12:29:24;3.23;;;3.03;;
5819;SDS011;2936;47.348;9.640;2022-08-04T12:31:55;8.07;;;3.07;;
5819;SDS011;2936;47.348;9.640;2022-08-04T12:34:26;2.97;;;2.87;;
5819;SDS011;2936;47.348;9.640;2022-08-04T12:36:57;2.97;;;2.87;;
5819;SDS011;2936;47.348;9.640;2022-08-04T12:39:28;2.97;;;2.70;;
5819;SDS011;2936;47.348;9.640;2022-08-04T12:41:57;2.90;;;2.70;;
5819;SDS011;2936;47.348;9.640;2022-08-04T12:44:42;3.20;;;2.70;;
5819;SDS011;2936;47.348;9.640;2022-08-04T12:47:12;4.57;;;3.17;;
5819;SDS011;2936;47.348;9.640;2022-08-04T12:49:41;4.73;;;2.70;;
5819;SDS011;2936;47.348;9.640;2022-08-04T12:52:10;3.23;;;2.33;;
5819;SDS011;2936;47.348;9.640;2022-08-04T12:54:39;2.97;;;2.80;;
5819;SDS011;2936;47.348;9.640;2022-08-04T12:57:08;4.83;;;3.00;;
5819;SDS011;2936;47.348;9.640;2022-08-04T12:59:38;9.40;;;3.33;;
5819;SDS011;2936;47.348;9.640;2022-08-04T13:02:07;2.93;;;2.73;;
5819;SDS011;2936;47.348;9.640;2022-08-04T13:04:40;3.03;;;2.83;;
5819;SDS011;2936;47.348;9.640;2022-08-04T13:07:09;3.43;;;3.13;;
5819;SDS011;2936;47.348;9.640;2022-08-04T13:09:37;8.83;;;3.10;;
5819;SDS011;2936;47.348;9.640;2022-08-04T13:12:08;3.40;;;2.77;;
5819;SDS011;2936;47.348;9.640;2022-08-04T13:17:48;2.63;;;2.53;;
5819;SDS011;2936;47.348;9.640;2022-08-04T13:20:19;2.73;;;2.60;;
5819;SDS011;2936;47.348;9.640;2022-08-04T13:22:50;6.50;;;3.10;;
5819;SDS011;2936;47.348;9.640;2022-08-04T13:25:18;2.50;;;2.40;;
5819;SDS011;2936;47.348;9.640;2022-08-04T13:27:47;2.87;;;2.77;;
5819;SDS011;2936;47.348;9.640;2022-08-04T13:30:41;3.80;;;3.47;;
5819;SDS011;2936;47.348;9.640;2022-08-04T13:33:12;3.13;;;3.00;;
5819;SDS011;2936;47.348;9.640;2022-08-04T13:35:42;9.23;;;3.40;;
5819;SDS011;2936;47.348;9.640;2022-08-04T13:38:11;7.27;;;2.83;;
5819;SDS011;2936;47.348;9.640;2022-08-04T13:40:38;4.17;;;3.87;;
5819;SDS011;2936;47.348;9.640;2022-08-04T13:43:07;2.80;;;2.70;;
5819;SDS011;2936;47.348;9.640;2022-08-04T13:45:35;2.73;;;2.50;;
5819;SDS011;2936;47.348;9.640;2022-08-04T13:48:04;6.50;;;3.20;;
5819;SDS011;2936;47.348;9.640;2022-08-04T13:50:34;3.50;;;3.30;;
5819;SDS011;2936;47.348;9.640;2022-08-04T13:53:03;2.83;;;2.63;;
5819;SDS011;2936;47.348;9.640;2022-08-04T13:55:31;13.40;;;2.97;;
5819;SDS011;2936;47.348;9.640;2022-08-04T13:58:01;3.57;;;3.37;;
5819;SDS011;2936;47.348;9.640;2022-08-04T14:00:38;4.50;;;2.93;;
5819;SDS011;2936;47.348;9.640;2022-08-04T14:03:07;5.60;;;3.23;;
5819;SDS011;2936;47.348;9.640;2022-08-04T14:05:36;3.20;;;2.87;;
5819;SDS011;2936;47.348;9.640;2022-08-04T14:08:05;3.00;;;2.80;;
5819;SDS011;2936;47.348;9.640;2022-08-04T14:10:34;3.00;;;2.80;;
5819;SDS011;2936;47.348;9.640;2022-08-04T14:13:26;6.20;;;3.10;;
5819;SDS011;2936;47.348;9.640;2022-08-04T14:15:59;3.17;;;2.97;;
5819;SDS011;2936;47.348;9.640;2022-08-04T14:18:27;10.73;;;3.87;;
5819;SDS011;2936;47.348;9.640;2022-08-04T14:21:05;3.60;;;3.40;;
5819;SDS011;2936;47.348;9.640;2022-08-04T14:23:41;5.33;;;3.47;;
5819;SDS011;2936;47.348;9.640;2022-08-04T14:26:12;3.27;;;2.60;;
5819;SDS011;2936;47.348;9.640;2022-08-04T14:28:40;2.63;;;2.40;;
5819;SDS011;2936;47.348;9.640;2022-08-04T14:31:08;4.67;;;2.70;;
5819;SDS011;2936;47.348;9.640;2022-08-04T14:33:36;2.53;;;2.37;;
5819;SDS011;2936;47.348;9.640;2022-08-04T14:36:06;2.63;;;2.50;;
5819;SDS011;2936;47.348;9.640;2022-08-04T14:38:40;2.90;;;2.63;;
5819;SDS011;2936;47.348;9.640;2022-08-04T14:41:09;2.53;;;2.43;;
5819;SDS011;2936;47.348;9.640;2022-08-04T14:43:41;2.47;;;2.37;;
5819;SDS011;2936;47.348;9.640;2022-08-04T14:46:10;2.83;;;2.63;;
5819;SDS011;2936;47.348;9.640;2022-08-04T14:48:38;2.80;;;2.47;;
5819;SDS011;2936;47.348;9.640;2022-08-04T14:51:15;1.97;;;1.83;;
5819;SDS011;2936;47.348;9.640;2022-08-04T14:53:46;2.33;;;2.23;;
5819;SDS011;2936;47.348;9.640;2022-08-04T14:56:13;2.53;;;1.90;;
5819;SDS011;2936;47.348;9.640;2022-08-04T14:58:41;2.30;;;2.20;;
5819;SDS011;2936;47.348;9.640;2022-08-04T15:01:09;7.47;;;1.90;;
5819;SDS011;2936;47.348;9.640;2022-08-04T15:03:39;2.50;;;2.40;;
5819;SDS011;2936;47.348;9.640;2022-08-04T15:06:08;2.90;;;2.70;;
5819;SDS011;2936;47.348;9.640;2022-08-04T15:08:37;2.27;;;2.17;;
5819;SDS011;2936;47.348;9.640;2022-08-04T15:11:04;2.73;;;2.27;;
5819;SDS011;2936;47.348;9.640;2022-08-04T15:13:32;3.50;;;2.00;;
5819;SDS011;2936;47.348;9.640;2022-08-04T15:16:00;2.43;;;2.33;;
5819;SDS011;2936;47.348;9.640;2022-08-04T15:18:27;2.10;;;2.00;;
5819;SDS011;2936;47.348;9.640;2022-08-04T15:20:55;3.33;;;2.40;;
5819;SDS011;2936;47.348;9.640;2022-08-04T15:23:22;2.93;;;2.33;;
5819;SDS011;2936;47.348;9.640;2022-08-04T15:25:52;2.40;;;2.20;;
5819;SDS011;2936;47.348;9.640;2022-08-04T15:28:21;2.30;;;2.10;;
5819;SDS011;2936;47.348;9.640;2022-08-04T15:30:49;2.50;;;2.30;;
5819;SDS011;2936;47.348;9.640;2022-08-04T15:33:17;2.40;;;2.20;;
5819;SDS011;2936;47.348;9.640;2022-08-04T15:35:48;5.17;;;2.20;;
5819;SDS011;2936;47.348;9.640;2022-08-04T15:38:21;2.10;;;2.00;;
5819;SDS011;2936;47.348;9.640;2022-08-04T15:40:54;2.50;;;2.00;;
5819;SDS011;2936;47.348;9.640;2022-08-04T15:43:26;2.30;;;2.20;;
5819;SDS011;2936;47.348;9.640;2022-08-04T15:45:59;3.10;;;2.10;;
5819;SDS011;2936;47.348;9.640;2022-08-04T15:48:29;2.40;;;1.90;;
5819;SDS011;2936;47.348;9.640;2022-08-04T15:51:04;2.03;;;1.93;;
5819;SDS011;2936;47.348;9.640;2022-08-04T15:59:04;2.33;;;2.13;;
5819;SDS011;2936;47.348;9.640;2022-08-04T16:01:31;3.03;;;2.70;;
5819;SDS011;2936;47.348;9.640;2022-08-04T16:03:58;4.07;;;2.50;;
5819;SDS011;2936;47.348;9.640;2022-08-04T16:06:41;2.83;;;2.30;;
5819;SDS011;2936;47.348;9.640;2022-08-04T16:09:19;2.27;;;2.10;;
5819;SDS011;2936;47.348;9.640;2022-08-04T16:11:46;2.60;;;2.40;;
5819;SDS011;2936;47.348;9.640;2022-08-04T16:14:15;7.60;;;2.17;;
5819;SDS011;2936;47.348;9.640;2022-08-04T16:16:46;2.43;;;2.23;;
5819;SDS011;2936;47.348;9.640;2022-08-04T16:19:20;2.13;;;1.93;;
5819;SDS011;2936;47.348;9.640;2022-08-04T16:21:49;2.70;;;2.43;;
5819;SDS011;2936;47.348;9.640;2022-08-04T16:24:18;2.17;;;2.00;;
5819;SDS011;2936;47.348;9.640;2022-08-04T16:26:52;2.20;;;2.10;;
5819;SDS011;2936;47.348;9.640;2022-08-04T16:29:35;2.13;;;2.03;;
5819;SDS011;2936;47.348;9.640;2022-08-04T16:32:06;4.07;;;2.53;;
5819;SDS011;2936;47.348;9.640;2022-08-04T16:34:35;2.83;;;2.63;;
5819;SDS011;2936;47.348;9.640;2022-08-04T16:37:03;5.00;;;2.20;;
5819;SDS011;2936;47.348;9.640;2022-08-04T16:39:31;11.23;;;2.53;;